Time;durP1;ratioP1;P1;durP2;ratioP2;P2;SDS_P1;SDS_P2;PMS_P1;PMS_P2;Temp;Humidity;BMP_temperature;BMP_pressure;BME280_temperature;BME280_humidity;BME280_pressure;Samples;Min_cycle;Max_cycle;Signal;HPM_P1;HPM_P2
2022/07/18 00:00:23;;;;;;;1.10;0.60;;;13.60;98.80;;;;;;4971822;28;20438;-81
2022/07/18 00:02:49;;;;;;;0.70;0.40;;;13.60;99.00;;;;;;4972343;28;20438;-81
2022/07/18 00:05:16;;;;;;;0.43;0.43;;;13.60;99.30;;;;;;4975465;28;20447;-81
2022/07/18 00:07:43;;;;;;;0.53;0.53;;;13.60;99.80;;;;;;4989304;28;20480;-81
2022/07/18 00:10:10;;;;;;;0.30;0.30;;;13.60;99.90;;;;;;4987074;28;20438;-81
2022/07/18 00:12:37;;;;;;;0.47;0.47;;;13.60;99.90;;;;;;4972358;28;20442;-82
2022/07/18 00:15:06;;;;;;;0.60;0.60;;;13.60;99.90;;;;;;4977273;28;20443;-82
2022/07/18 00:17:36;;;;;;;0.73;0.60;;;13.60;99.90;;;;;;4970827;28;20508;-82
2022/07/18 00:20:06;;;;;;;0.40;0.40;;;13.70;99.90;;;;;;4971868;28;20442;-82
2022/07/18 00:22:33;;;;;;;0.45;0.45;;;13.80;99.90;;;;;;4973882;28;20526;-83
2022/07/18 00:25:02;;;;;;;0.45;0.45;;;13.90;99.90;;;;;;4986543;28;20494;-82
2022/07/18 00:27:32;;;;;;;0.40;0.40;;;14.00;99.90;;;;;;4992341;28;20520;-82
2022/07/18 00:29:58;;;;;;;0.30;0.30;;;14.00;99.90;;;;;;4972281;28;20511;-82
2022/07/18 00:32:25;;;;;;;1.05;0.38;;;14.00;99.70;;;;;;4987244;28;20469;-82
2022/07/18 00:34:52;;;;;;;0.47;0.47;;;13.90;99.70;;;;;;4988046;28;20441;-81
2022/07/18 00:37:19;;;;;;;0.60;0.60;;;13.70;99.70;;;;;;4987941;28;20427;-81
2022/07/18 00:39:46;;;;;;;0.50;0.50;;;13.50;99.90;;;;;;4990139;28;20553;-81
2022/07/18 00:42:15;;;;;;;0.43;0.43;;;13.30;99.90;;;;;;4968558;28;20428;-81
2022/07/18 00:44:42;;;;;;;0.30;0.30;;;13.20;99.90;;;;;;4983292;28;20688;-81
2022/07/18 00:47:09;;;;;;;0.43;0.40;;;13.20;99.90;;;;;;4964322;28;20453;-81
2022/07/18 00:49:35;;;;;;;1.25;0.35;;;13.20;99.90;;;;;;4988023;28;20448;-81
2022/07/18 00:52:03;;;;;;;0.70;0.50;;;13.20;99.90;;;;;;4989245;28;20932;-82
2022/07/18 00:54:32;;;;;;;0.40;0.40;;;13.30;99.90;;;;;;4975287;28;20430;-81
2022/07/18 00:57:00;;;;;;;0.40;0.40;;;13.40;99.90;;;;;;4988659;28;20510;-81
2022/07/18 01:01:42;;;;;;;0.40;0.40;;;13.40;99.90;;;;;;4986953;28;20435;-82
2022/07/18 01:02:14;;;;;;;0.50;0.50;;;13.30;99.90;;;;;;4987189;28;20442;-80
2022/07/18 01:04:42;;;;;;;0.40;0.40;;;13.20;99.90;;;;;;4970792;28;20811;-81
2022/07/18 01:07:09;;;;;;;0.65;0.47;;;13.20;99.90;;;;;;4985741;28;20457;-81
2022/07/18 01:09:36;;;;;;;0.88;0.55;;;13.10;99.90;;;;;;4973089;28;20446;-82
2022/07/18 01:12:04;;;;;;;0.50;0.50;;;13.00;99.90;;;;;;4990708;28;20444;-82
2022/07/18 01:14:31;;;;;;;0.70;0.70;;;12.90;99.90;;;;;;4989747;28;20797;-81
2022/07/18 01:17:01;;;;;;;0.60;0.60;;;12.90;99.90;;;;;;4989240;28;20442;-81
2022/07/18 01:19:28;;;;;;;0.40;0.40;;;12.90;99.90;;;;;;4987863;28;20694;-82
2022/07/18 01:21:55;;;;;;;0.47;0.47;;;12.90;99.90;;;;;;4967706;28;20456;-81
2022/07/18 01:24:21;;;;;;;1.10;0.70;;;12.80;99.90;;;;;;4973126;28;20525;-81
2022/07/18 01:26:48;;;;;;;0.40;0.40;;;12.80;99.90;;;;;;4974055;28;20430;-82
2022/07/18 01:29:15;;;;;;;0.43;0.43;;;12.70;99.90;;;;;;4989342;28;20438;-82
2022/07/18 01:31:42;;;;;;;0.50;0.50;;;12.60;99.90;;;;;;4990111;28;20820;-82
2022/07/18 01:34:08;;;;;;;0.57;0.57;;;12.60;99.90;;;;;;4971839;28;20426;-82
2022/07/18 01:36:37;;;;;;;0.45;0.45;;;12.60;99.90;;;;;;4991451;28;20920;-82
2022/07/18 01:39:06;;;;;;;0.50;0.50;;;12.50;99.90;;;;;;4985069;28;20630;-82
2022/07/18 01:41:36;;;;;;;0.60;0.60;;;12.50;99.90;;;;;;4991384;28;20452;-82
2022/07/18 01:44:03;;;;;;;0.50;0.50;;;12.50;99.90;;;;;;4967348;28;20795;-82
2022/07/18 01:46:30;;;;;;;0.50;0.50;;;12.50;99.90;;;;;;4980030;28;20960;-81
2022/07/18 01:48:57;;;;;;;0.35;0.35;;;12.60;99.90;;;;;;4987211;28;20955;-82
2022/07/18 01:51:24;;;;;;;0.50;0.50;;;12.60;99.90;;;;;;4971913;28;20438;-82
2022/07/18 01:53:59;;;;;;;0.30;0.30;;;12.60;99.90;;;;;;4973594;28;20456;-82
2022/07/18 01:56:25;;;;;;;0.50;0.47;;;12.60;99.90;;;;;;4990968;28;20662;-81
2022/07/18 01:58:52;;;;;;;0.50;0.50;;;12.60;99.90;;;;;;4970666;28;20511;-81
2022/07/18 02:01:19;;;;;;;0.30;0.30;;;12.50;99.90;;;;;;4976269;28;20450;-81
2022/07/18 02:03:46;;;;;;;0.45;0.45;;;12.50;99.90;;;;;;4971523;28;20521;-81
2022/07/18 02:06:12;;;;;;;0.30;0.30;;;12.40;99.90;;;;;;4989875;28;20523;-81
2022/07/18 02:08:39;;;;;;;0.40;0.40;;;12.30;99.90;;;;;;4972865;28;20441;-81
2022/07/18 02:11:06;;;;;;;0.40;0.40;;;12.30;99.90;;;;;;4971266;28;20441;-81
2022/07/18 02:13:33;;;;;;;0.30;0.30;;;12.30;99.90;;;;;;4976842;28;20452;-81
2022/07/18 02:16:00;;;;;;;0.40;0.40;;;12.30;99.90;;;;;;4986726;28;20954;-82
2022/07/18 02:18:27;;;;;;;0.50;0.40;;;12.30;99.90;;;;;;4969793;28;21442;-82
2022/07/18 02:20:58;;;;;;;0.50;0.50;;;12.30;99.90;;;;;;4972245;28;20466;-81
2022/07/18 02:23:25;;;;;;;0.40;0.40;;;12.40;99.90;;;;;;4986722;28;20444;-81
2022/07/18 02:25:52;;;;;;;0.40;0.40;;;12.40;99.90;;;;;;4990629;28;20446;-81
2022/07/18 02:28:19;;;;;;;0.50;0.50;;;12.50;99.90;;;;;;4986988;28;20438;-83
2022/07/18 02:30:47;;;;;;;1.10;0.40;;;12.60;99.90;;;;;;4969049;28;20965;-83
2022/07/18 02:33:15;;;;;;;0.90;0.50;;;12.70;99.90;;;;;;4990043;28;20452;-81
2022/07/18 02:35:45;;;;;;;0.50;0.50;;;12.80;99.90;;;;;;4974757;28;20438;-81
2022/07/18 02:38:12;;;;;;;0.45;0.45;;;12.90;99.90;;;;;;4975740;28;20491;-81
2022/07/18 02:40:41;;;;;;;0.50;0.50;;;12.90;99.90;;;;;;4975253;28;20434;-80
2022/07/18 02:43:08;;;;;;;0.20;0.20;;;13.00;99.90;;;;;;4981477;28;20517;-81
2022/07/18 02:45:36;;;;;;;0.47;0.47;;;13.10;99.90;;;;;;4971452;28;20462;-81
2022/07/18 02:48:09;;;;;;;0.32;0.32;;;13.10;99.90;;;;;;4977723;28;20444;-82
2022/07/18 02:50:35;;;;;;;0.40;0.40;;;13.10;99.90;;;;;;4983621;28;20537;-82
2022/07/18 02:53:02;;;;;;;0.30;0.30;;;13.10;99.90;;;;;;4984197;28;20939;-81
2022/07/18 02:55:30;;;;;;;1.42;0.50;;;13.00;99.90;;;;;;4975451;28;20525;-82
2022/07/18 02:57:56;;;;;;;0.30;0.30;;;13.10;99.90;;;;;;4988749;28;20438;-82
2022/07/18 03:00:23;;;;;;;0.30;0.30;;;13.10;99.90;;;;;;4979993;28;20518;-82
2022/07/18 03:02:50;;;;;;;0.50;0.50;;;13.20;99.90;;;;;;4984917;28;20982;-82
2022/07/18 03:05:19;;;;;;;0.30;0.30;;;13.30;99.90;;;;;;4986934;28;20506;-83
2022/07/18 03:07:46;;;;;;;0.30;0.30;;;13.30;99.90;;;;;;4984494;28;20444;-82
2022/07/18 03:10:15;;;;;;;0.30;0.30;;;13.50;99.90;;;;;;4987616;28;20432;-82
2022/07/18 03:12:42;;;;;;;0.20;0.20;;;13.60;99.90;;;;;;4984199;28;20434;-82
2022/07/18 03:15:11;;;;;;;0.32;0.32;;;13.70;99.90;;;;;;4987609;28;20437;-82
2022/07/18 03:17:43;;;;;;;2.10;0.50;;;13.90;99.90;;;;;;4974257;28;20504;-82
2022/07/18 03:20:10;;;;;;;0.40;0.30;;;14.10;99.90;;;;;;4987523;28;20516;-81
2022/07/18 03:22:37;;;;;;;0.52;0.52;;;14.10;99.90;;;;;;4978543;28;20438;-82
2022/07/18 03:25:04;;;;;;;0.45;0.45;;;14.20;99.90;;;;;;4975603;28;20811;-82
2022/07/18 03:27:45;;;;;;;0.52;0.52;;;14.30;99.90;;;;;;4987722;28;20442;-83
2022/07/18 03:30:12;;;;;;;0.30;0.30;;;14.40;99.90;;;;;;4987808;28;20460;-82
2022/07/18 03:32:39;;;;;;;0.20;0.20;;;14.40;99.90;;;;;;4978697;28;20439;-84
2022/07/18 03:35:06;;;;;;;1.10;0.40;;;14.40;99.90;;;;;;4988455;28;20569;-82
2022/07/18 03:37:33;;;;;;;0.50;0.50;;;14.30;99.90;;;;;;4972659;28;20513;-83
2022/07/18 03:40:00;;;;;;;0.43;0.43;;;14.40;99.90;;;;;;4988793;28;20522;-82
2022/07/18 03:42:27;;;;;;;0.20;0.20;;;14.40;99.90;;;;;;4985822;28;20443;-83
2022/07/18 03:44:53;;;;;;;0.38;0.38;;;14.30;99.90;;;;;;4984427;28;20441;-82
2022/07/18 03:47:26;;;;;;;0.50;0.50;;;14.30;99.90;;;;;;4975129;28;20509;-83
2022/07/18 03:49:53;;;;;;;0.30;0.30;;;14.20;99.90;;;;;;4975852;28;20434;-82
2022/07/18 03:52:20;;;;;;;0.55;0.55;;;14.20;99.90;;;;;;4986833;28;20500;-82
2022/07/18 03:54:47;;;;;;;0.40;0.40;;;14.10;99.90;;;;;;4964890;28;20525;-82
2022/07/18 03:57:14;;;;;;;0.30;0.30;;;14.10;99.90;;;;;;4970534;28;20445;-82
2022/07/18 03:59:40;;;;;;;0.20;0.20;;;14.10;99.90;;;;;;4974118;28;20487;-83
2022/07/18 04:02:07;;;;;;;0.30;0.30;;;14.10;99.90;;;;;;4972204;28;20442;-82
2022/07/18 04:04:34;;;;;;;0.40;0.40;;;14.10;99.90;;;;;;4988187;28;20445;-83
2022/07/18 04:07:04;;;;;;;0.30;0.30;;;14.10;99.90;;;;;;4971986;28;20656;-84
2022/07/18 04:09:30;;;;;;;0.30;0.30;;;14.10;99.90;;;;;;4975806;28;20434;-82
2022/07/18 04:11:57;;;;;;;0.60;0.40;;;14.20;99.90;;;;;;4969591;28;20436;-82
2022/07/18 04:14:24;;;;;;;0.40;0.35;;;14.30;99.90;;;;;;4987003;28;20434;-82
2022/07/18 04:16:51;;;;;;;0.40;0.40;;;14.30;99.90;;;;;;4987528;28;20517;-82
2022/07/18 04:19:18;;;;;;;0.30;0.30;;;14.40;99.90;;;;;;4989869;28;20458;-82
2022/07/18 04:21:44;;;;;;;0.30;0.30;;;14.50;99.90;;;;;;4987109;28;20570;-81
2022/07/18 04:24:11;;;;;;;0.30;0.30;;;14.50;99.90;;;;;;4972446;28;20442;-81
2022/07/18 04:26:38;;;;;;;0.30;0.30;;;14.60;99.90;;;;;;4985288;28;20922;-81
2022/07/18 04:29:05;;;;;;;0.73;0.32;;;14.80;99.90;;;;;;4970427;28;20950;-82
2022/07/18 04:31:32;;;;;;;0.35;0.35;;;14.80;99.90;;;;;;4967462;28;21016;-82
2022/07/18 04:33:59;;;;;;;0.30;0.30;;;14.90;99.90;;;;;;4974842;28;20514;-81
2022/07/18 04:36:25;;;;;;;0.30;0.30;;;15.00;99.90;;;;;;4973847;28;20434;-81
2022/07/18 04:38:52;;;;;;;0.70;0.30;;;15.00;99.90;;;;;;4974629;28;20423;-82
2022/07/18 04:41:22;;;;;;;0.30;0.30;;;15.00;99.90;;;;;;4989622;28;20441;-82
2022/07/18 04:43:49;;;;;;;0.30;0.30;;;15.10;99.90;;;;;;4971845;28;20581;-82
2022/07/18 04:46:15;;;;;;;0.30;0.30;;;15.20;99.90;;;;;;4984315;28;20454;-82
2022/07/18 04:48:42;;;;;;;0.20;0.20;;;15.60;99.90;;;;;;4984513;28;20453;-82
2022/07/18 04:51:09;;;;;;;0.40;0.40;;;16.10;99.80;;;;;;4986981;28;20925;-82
2022/07/18 04:53:36;;;;;;;0.22;0.22;;;16.80;99.40;;;;;;4986980;28;20525;-83
2022/07/18 04:56:05;;;;;;;0.40;0.40;;;17.50;98.50;;;;;;4988595;28;20442;-83
2022/07/18 04:58:32;;;;;;;0.47;0.40;;;18.20;97.80;;;;;;4969166;28;20436;-83
2022/07/18 05:00:59;;;;;;;0.30;0.30;;;18.90;96.80;;;;;;4989400;28;20439;-83
2022/07/18 05:03:29;;;;;;;0.20;0.20;;;19.30;96.10;;;;;;4986220;28;20448;-82
2022/07/18 05:05:55;;;;;;;2.50;0.30;;;19.70;95.40;;;;;;4969099;28;20442;-83
2022/07/18 05:08:22;;;;;;;0.30;0.30;;;20.00;95.20;;;;;;4972604;28;20437;-82
2022/07/18 05:10:49;;;;;;;0.30;0.30;;;20.40;95.00;;;;;;4970133;28;20438;-82
2022/07/18 05:13:16;;;;;;;0.30;0.30;;;20.80;94.50;;;;;;4986341;28;20438;-82
2022/07/18 05:15:43;;;;;;;0.30;0.30;;;21.20;94.10;;;;;;4971776;28;20442;-83
2022/07/18 05:18:10;;;;;;;0.28;0.28;;;21.50;93.70;;;;;;4978076;28;20508;-82
2022/07/18 05:20:37;;;;;;;0.40;0.30;;;21.70;93.40;;;;;;4990316;28;20430;-82
2022/07/18 05:23:09;;;;;;;0.25;0.25;;;21.90;93.10;;;;;;4983861;28;20437;-83
2022/07/18 05:25:36;;;;;;;0.30;0.30;;;22.00;92.90;;;;;;4968463;28;20890;-82
2022/07/18 05:28:06;;;;;;;0.25;0.25;;;22.10;92.50;;;;;;4979596;28;21276;-82
2022/07/18 05:30:33;;;;;;;0.30;0.30;;;22.40;92.40;;;;;;4975212;28;20442;-83
2022/07/18 05:33:00;;;;;;;0.23;0.23;;;22.70;92.30;;;;;;4990568;28;20484;-83
2022/07/18 05:35:27;;;;;;;0.40;0.30;;;23.10;92.30;;;;;;4975419;28;20437;-84
2022/07/18 05:37:57;;;;;;;0.40;0.30;;;23.40;91.80;;;;;;4969801;28;21054;-82
2022/07/18 05:40:26;;;;;;;0.40;0.40;;;23.80;91.20;;;;;;4983884;28;20426;-83
2022/07/18 05:42:52;;;;;;;0.30;0.30;;;24.20;91.00;;;;;;4969424;28;20452;-82
2022/07/18 05:45:25;;;;;;;0.20;0.20;;;24.50;90.60;;;;;;4971698;28;20514;-82
2022/07/18 05:47:53;;;;;;;0.25;0.25;;;24.40;90.80;;;;;;4983506;28;20518;-82
2022/07/18 05:50:21;;;;;;;0.30;0.30;;;24.10;90.40;;;;;;4978823;28;20449;-82
2022/07/18 05:52:48;;;;;;;0.30;0.30;;;24.10;90.50;;;;;;4979653;28;20434;-84
2022/07/18 05:55:15;;;;;;;0.25;0.25;;;24.30;90.20;;;;;;4964006;28;20446;-82
2022/07/18 05:57:42;;;;;;;0.30;0.30;;;24.70;90.50;;;;;;4970773;28;20932;-85
2022/07/18 06:00:10;;;;;;;0.20;0.20;;;25.30;90.30;;;;;;4986656;28;20525;-85
2022/07/18 06:02:37;;;;;;;0.30;0.30;;;25.70;89.40;;;;;;4970780;28;20458;-84
2022/07/18 06:05:06;;;;;;;0.30;0.30;;;26.10;88.40;;;;;;4986339;28;20496;-85
2022/07/18 06:07:55;;;;;;;0.30;0.30;;;26.50;87.10;;;;;;4978319;28;20460;-83
2022/07/18 06:10:24;;;;;;;0.22;0.22;;;26.60;86.20;;;;;;4988356;28;20438;-83
2022/07/18 06:12:54;;;;;;;0.25;0.25;;;26.70;87.30;;;;;;4971134;28;20446;-84
2022/07/18 06:15:21;;;;;;;0.30;0.30;;;27.00;85.50;;;;;;4968618;28;20778;-85
2022/07/18 06:17:51;;;;;;;0.20;0.20;;;26.80;85.00;;;;;;4986147;28;20972;-86
2022/07/18 06:20:18;;;;;;;0.43;0.43;;;26.60;84.50;;;;;;4989189;28;20461;-85
2022/07/18 06:22:45;;;;;;;0.20;0.20;;;26.60;85.00;;;;;;4968815;28;20967;-83
2022/07/18 06:25:12;;;;;;;0.20;0.20;;;26.50;84.90;;;;;;4952171;28;20980;-84
2022/07/18 06:27:39;;;;;;;0.25;0.25;;;26.70;85.90;;;;;;4964990;28;20442;-85
2022/07/18 06:30:09;;;;;;;0.30;0.30;;;27.20;84.90;;;;;;4985378;28;20438;-86
2022/07/18 06:32:36;;;;;;;0.30;0.30;;;27.20;83.80;;;;;;4971098;28;20521;-86
2022/07/18 06:35:04;;;;;;;0.25;0.25;;;27.30;83.40;;;;;;4966330;28;20521;-84
2022/07/18 06:37:31;;;;;;;0.20;0.20;;;27.40;83.70;;;;;;4962386;28;20438;-86
2022/07/18 06:39:57;;;;;;;0.23;0.23;;;27.00;83.00;;;;;;4978242;28;21115;-87
2022/07/18 06:42:29;;;;;;;0.30;0.30;;;27.00;83.00;;;;;;4967147;28;20457;-85
2022/07/18 06:45:02;;;;;;;0.30;0.30;;;27.00;82.80;;;;;;4977635;28;20915;-85
2022/07/18 06:47:37;;;;;;;0.20;0.20;;;27.30;83.00;;;;;;4971065;28;20509;-85
2022/07/18 06:50:04;;;;;;;0.30;0.30;;;27.40;82.70;;;;;;4985299;28;20448;-83
2022/07/18 06:52:30;;;;;;;0.30;0.30;;;27.80;83.70;;;;;;4975898;28;20445;-82
2022/07/18 06:54:57;;;;;;;0.20;0.20;;;28.30;82.40;;;;;;4972731;28;20448;-83
2022/07/18 06:57:24;;;;;;;0.30;0.30;;;28.40;80.80;;;;;;4986086;28;20445;-83
2022/07/18 06:59:51;;;;;;;0.28;0.28;;;28.20;80.00;;;;;;4975389;28;20446;-83
2022/07/18 07:02:24;;;;;;;0.30;0.30;;;28.30;80.80;;;;;;4980696;28;20441;-82
2022/07/18 07:04:52;;;;;;;0.30;0.30;;;27.90;80.70;;;;;;4987868;28;20638;-83
2022/07/18 07:07:19;;;;;;;0.30;0.30;;;28.20;80.70;;;;;;4974754;28;20441;-83
2022/07/18 07:09:45;;;;;;;0.90;0.30;;;28.60;80.10;;;;;;4981395;28;20437;-83
2022/07/18 07:12:12;;;;;;;0.50;0.40;;;29.10;79.40;;;;;;4965455;28;20442;-84
2022/07/18 07:14:39;;;;;;;0.30;0.30;;;29.50;78.80;;;;;;4968034;28;20818;-83
2022/07/18 07:17:06;;;;;;;0.30;0.30;;;29.30;78.50;;;;;;4984434;28;20517;-83
2022/07/18 07:19:36;;;;;;;0.63;0.63;;;29.60;78.70;;;;;;4985364;28;21002;-83
2022/07/18 07:22:03;;;;;;;0.30;0.30;;;29.90;77.90;;;;;;4974162;28;20438;-84
2022/07/18 07:24:29;;;;;;;0.30;0.30;;;29.60;77.00;;;;;;4986049;28;20520;-83
2022/07/18 07:26:56;;;;;;;0.40;0.40;;;29.80;78.20;;;;;;4977093;28;20442;-82
2022/07/18 07:29:23;;;;;;;0.30;0.30;;;30.00;77.80;;;;;;4982120;28;20877;-83
2022/07/18 07:31:49;;;;;;;0.30;0.30;;;30.40;76.90;;;;;;4966078;28;20442;-84
2022/07/18 07:34:16;;;;;;;0.27;0.27;;;30.50;75.70;;;;;;4982597;28;21122;-84
2022/07/18 07:36:43;;;;;;;0.30;0.30;;;30.30;75.60;;;;;;4973229;28;20533;-82
2022/07/18 07:39:10;;;;;;;0.38;0.30;;;29.90;74.90;;;;;;4986838;28;20524;-83
2022/07/18 07:41:39;;;;;;;0.30;0.30;;;29.60;76.20;;;;;;4989144;28;20522;-82
2022/07/18 07:44:06;;;;;;;0.30;0.30;;;30.00;77.00;;;;;;4986762;28;21190;-82
2022/07/18 07:46:33;;;;;;;0.20;0.20;;;29.50;75.80;;;;;;4984224;28;20473;-82
2022/07/18 07:48:59;;;;;;;0.20;0.20;;;29.90;76.40;;;;;;4983776;28;20438;-81
2022/07/18 07:51:27;;;;;;;0.30;0.30;;;29.70;76.80;;;;;;4981840;28;20457;-83
2022/07/18 07:54:00;;;;;;;0.20;0.20;;;29.90;76.60;;;;;;4976316;28;20446;-83
2022/07/18 07:56:27;;;;;;;0.30;0.30;;;30.30;76.00;;;;;;4989894;28;20454;-82
2022/07/18 07:58:53;;;;;;;0.47;0.47;;;30.70;76.30;;;;;;4989834;28;20432;-84
2022/07/18 08:01:20;;;;;;;0.30;0.30;;;31.20;76.60;;;;;;4990469;28;20434;-83
2022/07/18 08:03:50;;;;;;;0.20;0.20;;;31.40;74.50;;;;;;4990623;28;20544;-83
2022/07/18 08:06:17;;;;;;;0.30;0.30;;;31.60;74.00;;;;;;4971044;28;20448;-83
2022/07/18 08:08:43;;;;;;;0.30;0.30;;;31.80;73.80;;;;;;4986820;28;20484;-84
2022/07/18 08:11:10;;;;;;;0.70;0.30;;;31.80;73.70;;;;;;4973067;28;20695;-83
2022/07/18 08:13:37;;;;;;;0.30;0.30;;;31.60;73.20;;;;;;4992929;28;20521;-83
2022/07/18 08:16:04;;;;;;;0.30;0.30;;;32.00;73.30;;;;;;4990468;28;20434;-82
2022/07/18 08:18:31;;;;;;;0.20;0.20;;;32.10;73.10;;;;;;4989632;28;20437;-82
2022/07/18 08:21:01;;;;;;;0.40;0.40;;;32.00;72.50;;;;;;4989725;28;20448;-83
2022/07/18 08:23:28;;;;;;;0.28;0.28;;;32.00;73.20;;;;;;4989750;28;20521;-83
2022/07/18 08:25:54;;;;;;;0.20;0.20;;;31.80;72.20;;;;;;4990858;28;20631;-82
2022/07/18 08:28:21;;;;;;;0.40;0.40;;;31.90;72.10;;;;;;4972582;28;20442;-82
2022/07/18 08:30:48;;;;;;;0.30;0.30;;;31.90;71.30;;;;;;4987198;28;20434;-82
2022/07/18 08:33:17;;;;;;;0.30;0.30;;;32.10;73.50;;;;;;4988998;28;20448;-82
2022/07/18 08:35:47;;;;;;;0.50;0.50;;;32.30;74.40;;;;;;4989470;28;20507;-83
2022/07/18 08:38:14;;;;;;;0.30;0.30;;;32.50;73.10;;;;;;4986048;28;20466;-81
2022/07/18 08:40:41;;;;;;;0.30;0.30;;;33.20;72.20;;;;;;4989325;28;20487;-82
2022/07/18 08:43:15;;;;;;;0.30;0.30;;;32.40;71.20;;;;;;4983101;28;20457;-81
2022/07/18 08:45:54;;;;;;;0.50;0.50;;;32.40;73.70;;;;;;4986613;28;20445;-82
2022/07/18 08:48:21;;;;;;;0.40;0.40;;;32.80;71.20;;;;;;4989025;28;20430;-82
2022/07/18 08:50:49;;;;;;;0.40;0.40;;;33.00;74.30;;;;;;4987661;28;20904;-81
2022/07/18 08:53:19;;;;;;;0.32;0.32;;;33.50;71.20;;;;;;4988269;28;20510;-82
2022/07/18 08:55:48;;;;;;;0.28;0.28;;;33.80;69.80;;;;;;4992185;28;20571;-81
2022/07/18 08:58:17;;;;;;;0.30;0.30;;;34.00;70.00;;;;;;4966747;28;20457;-81
2022/07/18 09:01:09;;;;;;;0.40;0.40;;;33.60;69.20;;;;;;4977301;28;20471;-82
2022/07/18 09:03:36;;;;;;;0.40;0.40;;;33.10;69.50;;;;;;4969071;28;20445;-81
2022/07/18 09:06:04;;;;;;;0.22;0.22;;;32.80;70.20;;;;;;4977393;28;20460;-82
2022/07/18 09:08:31;;;;;;;0.40;0.40;;;32.80;69.30;;;;;;4989404;28;20460;-81
2022/07/18 09:11:00;;;;;;;0.30;0.30;;;33.00;71.90;;;;;;4971641;28;20509;-81
2022/07/18 09:13:33;;;;;;;0.40;0.40;;;33.20;69.70;;;;;;4972141;28;20434;-82
2022/07/18 09:16:02;;;;;;;0.80;0.30;;;33.20;69.40;;;;;;4989279;28;20509;-81
2022/07/18 09:18:38;;;;;;;0.30;0.30;;;33.20;70.20;;;;;;4983255;28;20441;-82
2022/07/18 09:21:08;;;;;;;0.30;0.30;;;33.50;69.90;;;;;;4969912;28;20434;-81
2022/07/18 09:23:41;;;;;;;0.50;0.50;;;33.60;70.50;;;;;;4985524;28;20866;-82
2022/07/18 09:26:09;;;;;;;0.30;0.30;;;33.70;69.30;;;;;;4984261;28;20912;-81
2022/07/18 09:28:46;;;;;;;0.28;0.28;;;33.30;64.40;;;;;;4987850;28;20442;-82
2022/07/18 09:31:34;;;;;;;0.30;0.30;;;32.70;64.60;;;;;;4985936;28;20501;-81
2022/07/18 09:34:04;;;;;;;0.30;0.30;;;33.00;65.70;;;;;;4989222;28;20438;-82
2022/07/18 09:36:36;;;;;;;0.25;0.25;;;32.90;67.90;;;;;;4984757;28;20438;-82
2022/07/18 09:39:20;;;;;;;0.20;0.20;;;32.80;66.50;;;;;;4980583;28;20438;-83
2022/07/18 09:41:47;;;;;;;0.35;0.35;;;33.10;65.00;;;;;;4984544;28;20497;-82
2022/07/18 09:44:15;;;;;;;0.30;0.30;;;33.30;64.20;;;;;;4987483;28;20889;-83
2022/07/18 09:47:02;;;;;;;0.30;0.30;;;33.10;63.70;;;;;;4989232;28;21077;-83
2022/07/18 09:49:34;;;;;;;0.40;0.40;;;32.40;67.10;;;;;;4988049;28;20434;-82
2022/07/18 09:52:07;;;;;;;0.30;0.30;;;31.90;65.40;;;;;;4975923;28;20444;-82
2022/07/18 09:54:42;;;;;;;0.30;0.30;;;32.40;66.20;;;;;;4990085;28;20442;-81
2022/07/18 09:57:09;;;;;;;0.30;0.30;;;32.60;66.10;;;;;;5006656;28;20560;-80
2022/07/18 09:59:37;;;;;;;0.30;0.30;;;32.40;64.60;;;;;;4968180;28;20434;-81
2022/07/18 10:02:05;;;;;;;0.30;0.30;;;33.10;65.40;;;;;;4966757;28;20426;-80
2022/07/18 10:04:32;;;;;;;0.40;0.30;;;33.20;64.70;;;;;;4987617;28;20794;-80
2022/07/18 10:07:02;;;;;;;0.40;0.40;;;33.30;66.40;;;;;;4983492;28;20512;-81
2022/07/18 10:09:29;;;;;;;0.30;0.30;;;33.20;64.90;;;;;;4972623;28;20928;-82
2022/07/18 10:11:56;;;;;;;0.30;0.30;;;33.00;62.70;;;;;;4970421;28;20438;-80
2022/07/18 10:14:30;;;;;;;0.30;0.30;;;32.80;65.00;;;;;;4988833;28;20434;-82
2022/07/18 10:16:59;;;;;;;0.30;0.30;;;33.00;64.70;;;;;;4972425;28;20438;-81
2022/07/18 10:19:26;;;;;;;0.20;0.20;;;33.40;64.70;;;;;;4971858;28;20441;-81
2022/07/18 10:21:54;;;;;;;0.33;0.33;;;33.90;64.70;;;;;;4987295;28;20445;-81
2022/07/18 10:24:24;;;;;;;0.30;0.30;;;34.20;63.70;;;;;;4989339;28;20439;-81
2022/07/18 10:27:23;;;;;;;0.30;0.30;;;33.60;63.10;;;;;;4988305;28;20445;-81
2022/07/18 10:30:33;;;;;;;0.30;0.30;;;33.70;64.60;;;;;;4907815;29;20449;-80
2022/07/18 10:33:01;;;;;;;0.30;0.30;;;34.00;65.10;;;;;;4886590;29;20443;-81
2022/07/18 10:36:05;;;;;;;0.40;0.40;;;34.40;63.70;;;;;;4911876;29;20435;-81
2022/07/18 10:38:39;;;;;;;0.40;0.40;;;34.70;64.00;;;;;;4857134;29;20449;-81
2022/07/18 10:41:13;;;;;;;0.30;0.30;;;34.10;62.60;;;;;;4869725;29;20450;-80
2022/07/18 10:43:42;;;;;;;0.20;0.20;;;33.40;63.30;;;;;;4870693;29;20513;-81
2022/07/18 10:46:10;;;;;;;0.38;0.38;;;33.70;63.10;;;;;;4868813;29;20436;-82
2022/07/18 10:48:37;;;;;;;0.20;0.20;;;33.80;63.00;;;;;;4870835;29;20999;-81
2022/07/18 10:51:07;;;;;;;0.30;0.30;;;34.40;64.00;;;;;;4870784;29;20444;-81
2022/07/18 10:53:53;;;;;;;0.30;0.30;;;34.60;62.50;;;;;;4872098;29;20440;-81
2022/07/18 10:56:28;;;;;;;0.30;0.30;;;34.70;64.10;;;;;;4871278;29;20448;-83
2022/07/18 10:58:56;;;;;;;0.40;0.40;;;34.70;63.40;;;;;;4867531;29;20467;-82
2022/07/18 11:01:24;;;;;;;0.30;0.30;;;35.00;62.40;;;;;;4869274;29;20448;-81
2022/07/18 11:04:27;;;;;;;0.38;0.38;;;35.00;62.10;;;;;;4869148;29;20439;-81
2022/07/18 11:07:08;;;;;;;0.30;0.30;;;35.30;62.80;;;;;;4896053;29;20440;-81
2022/07/18 11:09:43;;;;;;;0.38;0.38;;;35.30;64.10;;;;;;4909934;29;20445;-81
2022/07/18 11:12:25;;;;;;;0.35;0.35;;;35.40;65.70;;;;;;4936146;28;20521;-82
2022/07/18 11:15:15;;;;;;;0.30;0.30;;;35.30;61.90;;;;;;4984592;28;21044;-81
2022/07/18 11:17:54;;;;;;;0.30;0.30;;;35.70;65.30;;;;;;4983294;28;20921;-81
2022/07/18 11:20:41;;;;;;;0.40;0.40;;;36.00;63.10;;;;;;4991723;28;20430;-81
2022/07/18 11:23:18;;;;;;;0.30;0.30;;;35.50;61.60;;;;;;4990745;28;20524;-82
2022/07/18 11:25:50;;;;;;;0.38;0.38;;;35.20;63.30;;;;;;4986992;28;20430;-83
2022/07/18 11:28:28;;;;;;;0.30;0.30;;;34.70;62.50;;;;;;4975916;28;20448;-82
2022/07/18 11:31:09;;;;;;;0.30;0.30;;;34.90;64.40;;;;;;4989418;28;20460;-83
2022/07/18 11:33:41;;;;;;;0.30;0.30;;;34.10;63.40;;;;;;4981940;28;20448;-83
2022/07/18 11:36:12;;;;;;;0.50;0.40;;;34.10;63.00;;;;;;4991037;28;20513;-82
2022/07/18 11:38:56;;;;;;;0.30;0.30;;;34.00;62.60;;;;;;4986920;28;20795;-82
2022/07/18 11:41:24;;;;;;;0.40;0.40;;;34.10;64.70;;;;;;4984044;28;20437;-81
2022/07/18 11:43:56;;;;;;;0.30;0.30;;;34.60;62.60;;;;;;4972957;28;20861;-82
2022/07/18 11:46:24;;;;;;;0.45;0.38;;;33.80;62.40;;;;;;4987629;28;20441;-81
2022/07/18 11:49:03;;;;;;;0.30;0.30;;;33.90;63.50;;;;;;4981752;28;20960;-80
2022/07/18 11:51:35;;;;;;;0.30;0.30;;;34.30;63.20;;;;;;4985753;28;20432;-81
2022/07/18 11:54:02;;;;;;;0.40;0.40;;;34.70;63.50;;;;;;4989790;28;20442;-82
2022/07/18 11:56:29;;;;;;;0.50;0.50;;;34.90;62.90;;;;;;4983179;28;20434;-81
2022/07/18 11:58:57;;;;;;;0.30;0.30;;;35.30;61.60;;;;;;4988816;28;20540;-82
2022/07/18 12:01:32;;;;;;;0.30;0.30;;;35.30;62.80;;;;;;4988251;28;20530;-82
2022/07/18 12:04:02;;;;;;;0.30;0.30;;;35.60;61.90;;;;;;4988168;28;20441;-81
2022/07/18 12:06:29;;;;;;;0.40;0.40;;;35.30;62.40;;;;;;4985271;28;20452;-82
2022/07/18 12:09:06;;;;;;;0.30;0.30;;;35.20;61.00;;;;;;4995382;28;20438;-81
2022/07/18 12:11:36;;;;;;;0.30;0.30;;;34.90;61.00;;;;;;4989177;28;20973;-81
2022/07/18 12:14:14;;;;;;;0.80;0.33;;;35.10;62.60;;;;;;4976625;28;20526;-81
2022/07/18 12:16:43;;;;;;;0.32;0.30;;;35.10;63.10;;;;;;4991747;28;20490;-81
2022/07/18 12:19:16;;;;;;;0.20;0.20;;;35.30;62.80;;;;;;4970006;28;20435;-81
2022/07/18 12:21:54;;;;;;;0.70;0.50;;;35.30;62.40;;;;;;4973199;28;20434;-81
2022/07/18 12:24:35;;;;;;;0.30;0.30;;;35.30;62.60;;;;;;4982647;28;20453;-81
2022/07/18 12:27:18;;;;;;;0.33;0.33;;;35.40;63.50;;;;;;4980089;28;20888;-81
2022/07/18 12:29:55;;;;;;;0.30;0.30;;;35.60;62.40;;;;;;4967591;28;21024;-81
2022/07/18 12:32:24;;;;;;;0.32;0.32;;;35.30;62.40;;;;;;4978289;28;20440;-81
2022/07/18 12:35:01;;;;;;;0.30;0.30;;;35.50;62.20;;;;;;4972211;28;20477;-81
2022/07/18 12:37:29;;;;;;;0.30;0.30;;;34.70;62.00;;;;;;4978887;28;20440;-81
2022/07/18 12:39:58;;;;;;;0.25;0.25;;;35.10;63.80;;;;;;4985472;28;20489;-82
2022/07/18 12:42:45;;;;;;;0.40;0.40;;;35.40;62.80;;;;;;4980883;28;20453;-82
2022/07/18 12:45:15;;;;;;;0.43;0.43;;;35.10;62.10;;;;;;4982692;28;20477;-83
2022/07/18 12:47:42;;;;;;;0.30;0.30;;;34.80;62.20;;;;;;4982054;28;20442;-81
2022/07/18 12:50:09;;;;;;;0.40;0.40;;;34.80;61.80;;;;;;4983962;28;20446;-80
2022/07/18 12:52:41;;;;;;;0.20;0.20;;;34.60;62.00;;;;;;4984487;28;20469;-81
2022/07/18 12:55:08;;;;;;;0.28;0.28;;;34.40;62.60;;;;;;4984928;28;20445;-81
2022/07/18 12:57:35;;;;;;;0.22;0.22;;;34.40;62.70;;;;;;4987514;28;20514;-81
2022/07/18 13:00:03;;;;;;;0.40;0.40;;;34.90;63.40;;;;;;4980135;28;20554;-81